createdAt,value
2022-09-10T00:00:56.562Z,14.08
2022-09-10T00:01:56.589Z,14.05
2022-09-10T00:02:56.565Z,14.06
2022-09-10T00:03:56.531Z,14.02
2022-09-10T00:04:56.515Z,14.01
2022-09-10T00:05:56.487Z,13.99
2022-09-10T00:06:56.471Z,13.98
2022-09-10T00:07:56.451Z,13.94
2022-09-10T00:08:56.461Z,13.91
2022-09-10T00:09:56.434Z,13.91
2022-09-10T00:10:56.435Z,13.88
2022-09-10T00:11:56.403Z,13.87
2022-09-10T00:12:56.497Z,13.84
2022-09-10T00:13:56.479Z,13.83
2022-09-10T00:14:56.372Z,13.81
2022-09-10T00:15:56.408Z,13.79
2022-09-10T00:16:56.343Z,13.73
2022-09-10T00:17:56.325Z,13.72
2022-09-10T00:18:56.334Z,13.73
2022-09-10T00:19:56.303Z,13.71
2022-09-10T00:20:56.294Z,13.71
2022-09-10T00:21:56.273Z,13.71
2022-09-10T00:22:56.265Z,13.69
2022-09-10T00:23:56.260Z,13.69
2022-09-10T00:24:56.233Z,13.69
2022-09-10T00:25:56.220Z,13.66
2022-09-10T00:26:56.210Z,13.65
2022-09-10T00:27:56.193Z,13.66
2022-09-10T00:28:56.190Z,13.65
2022-09-10T00:29:56.167Z,13.65
2022-09-10T00:30:56.161Z,13.63
2022-09-10T00:31:56.130Z,13.63
2022-09-10T00:32:56.130Z,13.59
2022-09-10T00:33:56.122Z,13.57
2022-09-10T00:34:56.100Z,13.59
2022-09-10T00:35:56.086Z,13.57
2022-09-10T00:36:56.082Z,13.59
2022-09-10T00:37:56.060Z,13.55
2022-09-10T00:38:56.060Z,13.54
2022-09-10T00:39:56.062Z,13.51
2022-09-10T00:40:56.024Z,13.50
2022-09-10T00:41:56.014Z,13.48
2022-09-10T00:42:55.996Z,13.48
2022-09-10T00:43:55.990Z,13.47
2022-09-10T00:44:55.963Z,13.46
2022-09-10T00:45:55.969Z,13.44
2022-09-10T00:46:55.941Z,13.44
2022-09-10T00:47:55.919Z,13.44
2022-09-10T00:48:55.933Z,13.41
2022-09-10T00:49:55.906Z,13.43
2022-09-10T00:50:55.890Z,13.43
2022-09-10T00:51:55.872Z,13.43
2022-09-10T00:52:55.862Z,13.41
2022-09-10T00:53:55.854Z,13.44
2022-09-10T00:54:55.839Z,13.43
2022-09-10T00:55:55.810Z,13.44
2022-09-10T00:56:55.812Z,13.47
2022-09-10T00:57:55.790Z,13.47
2022-09-10T00:58:55.812Z,13.47
2022-09-10T00:59:55.771Z,13.48
2022-09-10T01:00:55.826Z,13.50
2022-09-10T01:01:55.840Z,13.50
2022-09-10T01:02:55.741Z,13.51
2022-09-10T01:03:55.716Z,13.55
2022-09-10T01:04:55.704Z,13.55
2022-09-10T01:05:55.687Z,13.55
2022-09-10T01:06:55.671Z,13.55
2022-09-10T01:07:55.655Z,13.55
2022-09-10T01:08:55.666Z,13.54
2022-09-10T01:09:55.631Z,13.51
2022-09-10T01:10:55.610Z,13.53
2022-09-10T01:11:55.608Z,13.53
2022-09-10T01:12:55.610Z,13.50
2022-09-10T01:13:55.608Z,13.47
2022-09-10T01:14:55.586Z,13.47
2022-09-10T01:15:55.600Z,13.44
2022-09-10T01:16:55.531Z,13.43
2022-09-10T01:17:55.526Z,13.39
2022-09-10T01:18:55.514Z,13.41
2022-09-10T01:19:55.508Z,13.38
2022-09-10T01:20:55.481Z,13.35
2022-09-10T01:21:55.471Z,13.32
2022-09-10T01:22:55.462Z,13.31
2022-09-10T01:23:55.444Z,13.29
2022-09-10T01:24:55.422Z,13.28
2022-09-10T01:25:55.415Z,13.25
2022-09-10T01:26:55.403Z,13.24
2022-09-10T01:27:55.399Z,13.22
2022-09-10T01:28:55.371Z,13.22
2022-09-10T01:29:55.364Z,13.21
2022-09-10T01:30:55.355Z,13.16
2022-09-10T01:31:55.346Z,13.14
2022-09-10T01:32:55.342Z,13.13
2022-09-10T01:33:55.301Z,13.12
2022-09-10T01:34:55.296Z,13.09
2022-09-10T01:35:55.286Z,13.07
2022-09-10T01:36:55.261Z,13.06
2022-09-10T01:37:55.270Z,13.06
2022-09-10T01:38:55.243Z,13.04
2022-09-10T01:39:55.278Z,13.03
2022-09-10T01:40:55.229Z,13.01
2022-09-10T01:41:55.209Z,12.99
2022-09-10T01:42:55.199Z,13.01
2022-09-10T01:43:55.184Z,12.99
2022-09-10T01:44:55.161Z,12.98
2022-09-10T01:45:55.186Z,12.96
2022-09-10T01:46:55.141Z,12.98
2022-09-10T01:47:55.131Z,12.94
2022-09-10T01:48:55.102Z,12.94
2022-09-10T01:49:55.100Z,12.94
2022-09-10T01:50:55.080Z,12.94
2022-09-10T01:51:55.070Z,12.92
2022-09-10T01:52:55.062Z,12.92
2022-09-10T01:53:55.039Z,12.92
2022-09-10T01:54:55.022Z,12.89
2022-09-10T01:55:55.024Z,12.87
2022-09-10T01:56:55.002Z,12.85
2022-09-10T01:57:54.999Z,12.84
2022-09-10T01:58:54.972Z,12.81
2022-09-10T01:59:54.988Z,12.77
2022-09-10T02:00:54.967Z,12.77
2022-09-10T02:01:55.000Z,12.76
2022-09-10T02:02:54.931Z,12.74
2022-09-10T02:03:54.912Z,12.71
2022-09-10T02:04:54.892Z,12.70
2022-09-10T02:05:54.889Z,12.69
2022-09-10T02:06:54.861Z,12.69
2022-09-10T02:07:54.870Z,12.70
2022-09-10T02:08:54.842Z,12.70
2022-09-10T02:09:54.855Z,12.71
2022-09-10T02:10:54.819Z,12.70
2022-09-10T02:11:54.817Z,12.69
2022-09-10T02:12:54.802Z,12.67
2022-09-10T02:13:54.770Z,12.63
2022-09-10T02:14:54.759Z,12.62
2022-09-10T02:15:54.749Z,12.62
2022-09-10T02:16:54.745Z,12.61
2022-09-10T02:17:54.720Z,12.59
2022-09-10T02:18:54.711Z,12.56
2022-09-10T02:19:54.699Z,12.56
2022-09-10T02:20:54.679Z,12.55
2022-09-10T02:21:54.704Z,12.54
2022-09-10T02:22:54.654Z,12.55
2022-09-10T02:23:54.642Z,12.52
2022-09-10T02:24:54.628Z,12.52
2022-09-10T02:25:54.621Z,12.51
2022-09-10T02:26:54.614Z,12.51
2022-09-10T02:27:54.589Z,12.49
2022-09-10T02:28:54.577Z,12.46
2022-09-10T02:29:54.561Z,12.46
2022-09-10T02:30:54.538Z,12.46
2022-09-10T02:31:54.613Z,12.41
2022-09-10T02:32:54.521Z,12.41
2022-09-10T02:33:54.500Z,12.40
2022-09-10T02:34:54.503Z,12.38
2022-09-10T02:35:54.489Z,12.40
2022-09-10T02:36:54.484Z,12.40
2022-09-10T02:37:54.454Z,12.37
2022-09-10T02:38:54.439Z,12.38
2022-09-10T02:39:54.476Z,12.40
2022-09-10T02:40:54.409Z,12.41
2022-09-10T02:41:54.411Z,12.41
2022-09-10T02:42:54.379Z,12.40
2022-09-10T02:43:54.369Z,12.40
2022-09-10T02:44:54.363Z,12.40
2022-09-10T02:45:54.360Z,12.38
2022-09-10T02:46:54.349Z,12.37
2022-09-10T02:47:54.320Z,12.36
2022-09-10T02:48:54.305Z,12.36
2022-09-10T02:49:54.303Z,12.34
2022-09-10T02:50:54.280Z,12.33
2022-09-10T02:51:54.281Z,12.33
2022-09-10T02:52:54.247Z,12.33
2022-09-10T02:53:54.241Z,12.31
2022-09-10T02:54:54.230Z,12.36
2022-09-10T02:55:54.218Z,12.34
2022-09-10T02:56:54.198Z,12.36
2022-09-10T02:57:54.200Z,12.37
2022-09-10T02:58:54.178Z,12.37
2022-09-10T02:59:54.169Z,12.38
2022-09-10T03:00:54.154Z,12.38
2022-09-10T03:01:54.163Z,12.40
2022-09-10T03:02:54.141Z,12.40
2022-09-10T03:03:54.109Z,12.40
2022-09-10T03:04:54.091Z,12.38
2022-09-10T03:05:54.078Z,12.38
2022-09-10T03:06:54.066Z,12.38
2022-09-10T03:07:54.071Z,12.41
2022-09-10T03:08:54.047Z,12.40
2022-09-10T03:09:54.033Z,12.41
2022-09-10T03:10:54.011Z,12.43
2022-09-10T03:11:54.010Z,12.41
2022-09-10T03:12:53.996Z,12.41
2022-09-10T03:13:53.975Z,12.43
2022-09-10T03:14:53.970Z,12.43
2022-09-10T03:15:53.957Z,12.40
2022-09-10T03:16:53.954Z,12.40
2022-09-10T03:17:53.970Z,12.38
2022-09-10T03:18:53.922Z,12.40
2022-09-10T03:19:53.901Z,12.40
2022-09-10T03:20:53.880Z,12.41
2022-09-10T03:21:53.873Z,12.40
2022-09-10T03:22:53.860Z,12.38
2022-09-10T03:23:53.849Z,12.40
2022-09-10T03:24:53.831Z,12.38
2022-09-10T03:25:53.832Z,12.40
2022-09-10T03:26:53.799Z,12.38
2022-09-10T03:27:53.809Z,12.36
2022-09-10T03:28:53.792Z,12.36
2022-09-10T03:29:53.769Z,12.34
2022-09-10T03:30:53.759Z,12.36
2022-09-10T03:31:53.807Z,12.36
2022-09-10T03:32:53.719Z,12.34
2022-09-10T03:33:53.707Z,12.34
2022-09-10T03:34:53.700Z,12.34
2022-09-10T03:35:53.699Z,12.33
2022-09-10T03:36:53.692Z,12.34
2022-09-10T03:37:53.657Z,12.33
2022-09-10T03:38:53.773Z,12.34
2022-09-10T03:39:53.684Z,12.33
2022-09-10T03:40:53.620Z,12.31
2022-09-10T03:41:53.608Z,12.30
2022-09-10T03:42:53.586Z,12.30
2022-09-10T03:43:53.587Z,12.29
2022-09-10T03:44:53.566Z,12.29
2022-09-10T03:45:53.604Z,12.26
2022-09-10T03:46:53.546Z,12.23
2022-09-10T03:47:53.529Z,12.22
2022-09-10T03:48:55.431Z,12.21
2022-09-10T03:49:53.506Z,12.21
2022-09-10T03:50:53.478Z,12.18
2022-09-10T03:51:53.490Z,12.18
2022-09-10T03:52:53.453Z,12.19
2022-09-10T03:53:53.447Z,12.19
2022-09-10T03:54:53.437Z,12.19
2022-09-10T03:55:53.415Z,12.19
2022-09-10T03:56:53.418Z,12.19
2022-09-10T03:57:53.395Z,12.18
2022-09-10T03:58:53.374Z,12.16
2022-09-10T03:59:53.365Z,12.18
2022-09-10T04:00:53.404Z,12.16
2022-09-10T04:01:53.383Z,12.18
2022-09-10T04:02:53.329Z,12.16
2022-09-10T04:03:53.318Z,12.15
2022-09-10T04:04:53.302Z,12.16
2022-09-10T04:05:53.287Z,12.18
2022-09-10T04:06:53.285Z,12.19
2022-09-10T04:07:53.264Z,12.18
2022-09-10T04:08:53.248Z,12.19
2022-09-10T04:09:53.239Z,12.23
2022-09-10T04:10:53.215Z,12.25
2022-09-10T04:11:53.218Z,12.29
2022-09-10T04:12:53.184Z,12.30
2022-09-10T04:13:53.182Z,12.34
2022-09-10T04:14:53.167Z,12.36
2022-09-10T04:15:53.154Z,12.38
2022-09-10T04:16:53.146Z,12.38
2022-09-10T04:17:53.125Z,12.40
2022-09-10T04:18:53.103Z,12.44
2022-09-10T04:19:53.107Z,12.48
2022-09-10T04:20:53.084Z,12.48
2022-09-10T04:21:53.086Z,12.51
2022-09-10T04:22:53.053Z,12.54
2022-09-10T04:23:53.045Z,12.54
2022-09-10T04:24:53.038Z,12.56
2022-09-10T04:25:53.038Z,12.55
2022-09-10T04:26:53.012Z,12.56
2022-09-10T04:27:52.995Z,12.58
2022-09-10T04:28:52.975Z,12.58
2022-09-10T04:29:52.966Z,12.58
2022-09-10T04:30:52.958Z,12.61
2022-09-10T04:31:52.979Z,12.61
2022-09-10T04:32:52.917Z,12.61
2022-09-10T04:33:52.905Z,12.62
2022-09-10T04:34:52.901Z,12.62
2022-09-10T04:35:52.885Z,12.62
2022-09-10T04:36:52.873Z,12.59
2022-09-10T04:37:52.852Z,12.61
2022-09-10T04:38:52.835Z,12.62
2022-09-10T04:39:52.887Z,12.63
2022-09-10T04:40:52.831Z,12.66
2022-09-10T04:41:52.805Z,12.66
2022-09-10T04:42:52.782Z,12.69
2022-09-10T04:43:52.782Z,12.69
2022-09-10T04:44:52.765Z,12.69
2022-09-10T04:45:52.828Z,12.69
2022-09-10T04:46:52.736Z,12.70
2022-09-10T04:47:52.722Z,12.71
2022-09-10T04:48:52.703Z,12.73
2022-09-10T04:49:52.703Z,12.73
2022-09-10T04:51:14.766Z,12.74
2022-09-10T04:51:53.663Z,12.74
2022-09-10T04:52:52.652Z,12.74
2022-09-10T04:53:52.644Z,12.76
2022-09-10T04:54:52.631Z,12.77
2022-09-10T04:55:52.627Z,12.80
2022-09-10T04:56:52.604Z,12.81
2022-09-10T04:57:52.601Z,12.81
2022-09-10T04:58:52.571Z,12.85
2022-09-10T04:59:52.562Z,12.85
2022-09-10T05:00:52.608Z,12.88
2022-09-10T05:01:52.577Z,12.89
2022-09-10T05:02:52.522Z,12.92
2022-09-10T05:03:52.505Z,12.95
2022-09-10T05:04:52.491Z,12.99
2022-09-10T05:05:52.502Z,13.01
2022-09-10T05:06:52.475Z,13.06
2022-09-10T05:07:52.451Z,13.09
2022-09-10T05:08:52.443Z,13.14
2022-09-10T05:09:52.436Z,13.19
2022-09-10T05:10:52.432Z,13.24
2022-09-10T05:11:52.410Z,13.27
2022-09-10T05:12:52.383Z,13.31
2022-09-10T05:13:52.379Z,13.32
2022-09-10T05:14:52.358Z,13.36
2022-09-10T05:15:52.362Z,13.41
2022-09-10T05:16:52.357Z,13.46
2022-09-10T05:17:52.326Z,13.50
2022-09-10T05:18:52.301Z,13.53
2022-09-10T05:19:52.290Z,13.57
2022-09-10T05:20:52.291Z,13.61
2022-09-10T05:21:52.270Z,13.65
2022-09-10T05:22:52.256Z,13.68
2022-09-10T05:23:52.239Z,13.72
2022-09-10T05:24:52.230Z,13.75
2022-09-10T05:25:52.234Z,13.81
2022-09-10T05:26:52.205Z,13.86
2022-09-10T05:27:52.189Z,13.90
2022-09-10T05:28:52.179Z,13.93
2022-09-10T05:29:52.161Z,13.96
2022-09-10T05:30:52.168Z,13.98
2022-09-10T05:31:52.166Z,14.01
2022-09-10T05:32:52.140Z,14.05
2022-09-10T05:33:52.111Z,14.08
2022-09-10T05:34:52.102Z,14.11
2022-09-10T05:35:52.110Z,14.17
2022-09-10T05:36:52.061Z,14.19
2022-09-10T05:37:52.051Z,14.23
2022-09-10T05:38:52.062Z,14.29
2022-09-10T05:39:52.069Z,14.34
2022-09-10T05:40:52.018Z,14.39
2022-09-10T05:41:52.006Z,14.42
2022-09-10T05:42:51.992Z,14.45
2022-09-10T05:43:51.975Z,14.52
2022-09-10T05:44:51.981Z,14.57
2022-09-10T05:45:52.005Z,14.60
2022-09-10T05:46:51.939Z,14.64
2022-09-10T05:47:51.920Z,14.71
2022-09-10T05:48:51.910Z,14.75
2022-09-10T05:49:51.907Z,14.80
2022-09-10T05:50:51.878Z,14.85
2022-09-10T05:51:51.874Z,14.97
2022-09-10T05:52:51.876Z,15.11
2022-09-10T05:53:51.839Z,15.13
2022-09-10T05:54:51.843Z,15.18
2022-09-10T05:55:51.807Z,15.22
2022-09-10T05:56:51.798Z,15.28
2022-09-10T05:57:51.780Z,15.33
2022-09-10T05:58:51.863Z,15.38
2022-09-10T05:59:51.772Z,15.46
2022-09-10T06:00:51.749Z,15.51
2022-09-10T06:01:51.772Z,15.59
2022-09-10T06:02:51.835Z,15.62
2022-09-10T06:03:51.702Z,15.68
2022-09-10T06:04:51.708Z,15.74
2022-09-10T06:05:51.669Z,15.80
2022-09-10T06:06:51.676Z,15.86
2022-09-10T06:07:51.650Z,15.93
2022-09-10T06:08:51.649Z,15.99
2022-09-10T06:09:51.621Z,16.06
2022-09-10T06:10:51.625Z,16.10
2022-09-10T06:11:51.600Z,16.14
2022-09-10T06:12:51.589Z,16.22
2022-09-10T06:13:51.579Z,16.29
2022-09-10T06:14:51.559Z,16.37
2022-09-10T06:15:51.537Z,16.44
2022-09-10T06:16:51.531Z,16.51
2022-09-10T06:17:51.510Z,16.57
2022-09-10T06:18:51.522Z,16.62
2022-09-10T06:19:51.482Z,16.66
2022-09-10T06:20:51.478Z,16.72
2022-09-10T06:21:51.459Z,16.80
2022-09-10T06:22:51.463Z,16.87
2022-09-10T06:23:51.452Z,16.95
2022-09-10T06:24:51.423Z,17.00
2022-09-10T06:25:51.409Z,17.05
2022-09-10T06:26:51.451Z,17.09
2022-09-10T06:27:51.384Z,17.10
2022-09-10T06:28:51.538Z,17.14
2022-09-10T06:29:51.351Z,17.15
2022-09-10T06:30:51.369Z,17.20
2022-09-10T06:31:51.330Z,17.22
2022-09-10T06:32:51.321Z,17.22
2022-09-10T06:33:51.319Z,17.22
2022-09-10T06:34:51.299Z,17.22
2022-09-10T06:35:53.636Z,17.24
2022-09-10T06:36:51.266Z,17.24
2022-09-10T06:37:51.253Z,17.25
2022-09-10T06:38:51.259Z,17.27
2022-09-10T06:39:51.269Z,17.28
2022-09-10T06:40:51.240Z,17.30
2022-09-10T06:41:51.190Z,17.30
2022-09-10T06:42:51.191Z,17.33
2022-09-10T06:43:51.182Z,17.36
2022-09-10T06:44:51.158Z,17.36
2022-09-10T06:45:51.181Z,17.40
2022-09-10T06:48:37.641Z,17.45
2022-09-10T06:48:52.451Z,17.47
2022-09-10T06:49:51.090Z,17.53
2022-09-10T06:50:51.082Z,17.55
2022-09-10T06:51:51.064Z,17.60
2022-09-10T06:52:51.058Z,17.63
2022-09-10T06:53:51.050Z,17.68
2022-09-10T06:54:51.029Z,17.73
2022-09-10T06:55:51.022Z,17.79
2022-09-10T06:56:50.999Z,17.81
2022-09-10T06:57:50.989Z,17.87
2022-09-10T06:58:50.991Z,17.94
2022-09-10T06:59:50.948Z,17.98
2022-09-10T07:00:51.017Z,18.02
2022-09-10T07:01:50.960Z,18.13
2022-09-10T07:02:50.922Z,18.32
2022-09-10T07:03:50.917Z,18.36
2022-09-10T07:04:50.896Z,18.41
2022-09-10T07:05:50.879Z,18.51
2022-09-10T07:06:50.869Z,18.71
2022-09-10T07:07:50.854Z,19.34
2022-09-10T07:08:50.849Z,19.82
2022-09-10T07:09:50.828Z,19.98
2022-09-10T07:10:50.828Z,20.64
2022-09-10T07:11:50.798Z,21.49
2022-09-10T07:12:50.782Z,22.29
2022-09-10T07:13:50.779Z,22.99
2022-09-10T07:14:50.758Z,23.59
2022-09-10T07:15:50.807Z,24.05
2022-09-10T07:16:50.733Z,24.26
2022-09-10T07:17:50.712Z,24.75
2022-09-10T07:18:50.709Z,25.26
2022-09-10T07:19:50.703Z,25.72
2022-09-10T07:20:50.682Z,26.19
2022-09-10T07:21:50.661Z,26.61
2022-09-10T07:22:50.658Z,27.09
2022-09-10T07:23:50.647Z,27.16
2022-09-10T07:24:50.637Z,27.15
2022-09-10T07:25:50.617Z,27.15
2022-09-10T07:26:50.601Z,27.52
2022-09-10T07:27:50.582Z,27.69
2022-09-10T07:28:50.593Z,28.05
2022-09-10T07:29:50.566Z,28.24
2022-09-10T07:30:50.587Z,28.45
2022-09-10T07:31:50.552Z,28.76
2022-09-10T07:32:50.532Z,29.11
2022-09-10T07:33:50.512Z,29.49
2022-09-10T07:34:50.512Z,29.76
2022-09-10T07:35:50.482Z,29.95
2022-09-10T07:36:50.473Z,30.06
2022-09-10T07:37:50.473Z,29.91
2022-09-10T07:38:50.456Z,29.84
2022-09-10T07:39:50.492Z,30.06
2022-09-10T07:40:50.416Z,30.38
2022-09-10T07:41:50.413Z,30.76
2022-09-10T07:42:50.394Z,31.03
2022-09-10T07:43:50.374Z,31.32
2022-09-10T07:44:50.379Z,31.59
2022-09-10T07:45:50.367Z,31.87
2022-09-10T07:46:50.343Z,32.19
2022-09-10T07:47:50.346Z,32.43
2022-09-10T07:48:50.337Z,32.53
2022-09-10T07:49:50.315Z,32.49
2022-09-10T07:50:50.288Z,32.50
2022-09-10T07:51:50.285Z,32.61
2022-09-10T07:52:50.257Z,32.59
2022-09-10T07:53:50.972Z,32.65
2022-09-10T07:54:50.236Z,32.72
2022-09-10T07:55:50.250Z,32.90
2022-09-10T07:56:50.216Z,33.06
2022-09-10T07:57:50.197Z,32.56
2022-09-10T07:58:50.196Z,31.90
2022-09-10T07:59:50.163Z,31.05
2022-09-10T08:00:50.168Z,30.25
2022-09-10T08:01:50.176Z,29.54
2022-09-10T08:02:50.155Z,29.00
2022-09-10T08:03:50.127Z,29.02
2022-09-10T08:04:50.122Z,29.07
2022-09-10T08:05:50.098Z,29.15
2022-09-10T08:06:50.083Z,29.17
2022-09-10T08:07:50.080Z,29.21
2022-09-10T08:08:50.112Z,28.92
2022-09-10T08:09:50.029Z,28.55
2022-09-10T08:10:50.070Z,28.20
2022-09-10T08:11:50.073Z,27.84
2022-09-10T08:12:50.010Z,28.03
2022-09-10T08:13:49.990Z,28.55
2022-09-10T08:14:49.987Z,29.15
2022-09-10T08:15:49.983Z,29.69
2022-09-10T08:16:49.957Z,30.19
2022-09-10T08:17:49.938Z,30.45
2022-09-10T08:18:49.933Z,30.61
2022-09-10T08:19:49.911Z,30.30
2022-09-10T08:20:49.905Z,30.23
2022-09-10T08:21:49.899Z,30.56
2022-09-10T08:22:49.881Z,30.90
2022-09-10T08:23:49.873Z,31.32
2022-09-10T08:24:49.862Z,31.64
2022-09-10T08:25:49.832Z,31.99
2022-09-10T08:26:49.856Z,31.95
2022-09-10T08:27:49.817Z,31.53
2022-09-10T08:28:49.821Z,31.00
2022-09-10T08:29:49.779Z,30.42
2022-09-10T08:30:49.858Z,29.85
2022-09-10T08:31:49.772Z,29.30
2022-09-10T08:32:49.790Z,29.26
2022-09-10T08:33:49.740Z,29.47
2022-09-10T08:34:49.723Z,29.21
2022-09-10T08:35:49.718Z,28.88
2022-09-10T08:36:49.731Z,28.48
2022-09-10T08:37:49.685Z,28.38
2022-09-10T08:38:49.694Z,28.45
2022-09-10T08:39:49.702Z,28.38
2022-09-10T08:40:49.646Z,28.11
2022-09-10T08:41:49.628Z,28.13
2022-09-10T08:42:49.626Z,28.39
2022-09-10T08:43:49.657Z,28.32
2022-09-10T08:44:49.588Z,28.14
2022-09-10T08:45:49.615Z,27.96
2022-09-10T08:46:49.567Z,27.77
2022-09-10T08:47:49.546Z,27.53
2022-09-10T08:48:49.556Z,27.30
2022-09-10T08:49:49.529Z,27.16
2022-09-10T08:50:49.519Z,27.11
2022-09-10T08:51:49.497Z,27.03
2022-09-10T08:52:49.487Z,27.02
2022-09-10T08:53:49.500Z,26.96
2022-09-10T08:54:49.465Z,27.08
2022-09-10T08:55:49.443Z,27.42
2022-09-10T08:56:49.438Z,27.71
2022-09-10T08:57:49.419Z,27.86
2022-09-10T08:58:49.469Z,27.90
2022-09-10T08:59:49.409Z,28.20
2022-09-10T09:00:49.399Z,28.50
2022-09-10T09:01:49.468Z,28.73
2022-09-10T09:02:49.988Z,28.70
2022-09-10T09:03:49.349Z,28.57
2022-09-10T09:04:49.349Z,28.36
2022-09-10T09:05:49.328Z,28.13
2022-09-10T09:06:49.309Z,28.20
2022-09-10T09:07:49.281Z,28.28
2022-09-10T09:08:49.298Z,28.08
2022-09-10T09:09:49.271Z,27.78
2022-09-10T09:10:49.251Z,27.49
2022-09-10T09:11:49.238Z,27.20
2022-09-10T09:12:49.243Z,26.98
2022-09-10T09:13:49.221Z,26.83
2022-09-10T09:14:49.205Z,26.72
2022-09-10T09:15:49.237Z,26.57
2022-09-10T09:16:49.174Z,26.34
2022-09-10T09:17:49.152Z,26.09
2022-09-10T09:18:49.152Z,25.89
2022-09-10T09:19:49.133Z,25.91
2022-09-10T09:20:49.126Z,26.08
2022-09-10T09:21:49.123Z,26.16
2022-09-10T09:22:49.092Z,26.09
2022-09-10T09:24:11.785Z,25.94
2022-09-10T09:24:50.074Z,25.86
2022-09-10T09:25:49.051Z,26.04
2022-09-10T09:26:49.041Z,26.34
2022-09-10T09:27:49.046Z,26.61
2022-09-10T09:28:49.043Z,26.61
2022-09-10T09:29:49.015Z,26.53
2022-09-10T09:30:49.022Z,26.38
2022-09-10T09:31:48.982Z,26.28
2022-09-10T09:32:48.962Z,26.31
2022-09-10T09:33:48.961Z,26.21
2022-09-10T09:34:48.936Z,26.12
2022-09-10T09:35:48.923Z,26.01
2022-09-10T09:36:48.914Z,25.97
2022-09-10T09:37:48.912Z,25.96
2022-09-10T09:38:48.906Z,25.96
2022-09-10T09:39:48.915Z,25.96
2022-09-10T09:40:48.870Z,25.91
2022-09-10T09:41:48.846Z,25.82
2022-09-10T09:42:48.833Z,25.72
2022-09-10T09:43:48.848Z,25.61
2022-09-10T09:44:48.836Z,25.51
2022-09-10T09:45:48.819Z,25.45
2022-09-10T09:46:48.784Z,25.39
2022-09-10T09:47:48.765Z,25.38
2022-09-10T09:48:48.765Z,25.36
2022-09-10T09:49:48.740Z,25.41
2022-09-10T09:50:48.726Z,25.41
2022-09-10T09:51:48.715Z,25.38
2022-09-10T09:52:48.697Z,25.35
2022-09-10T09:53:51.804Z,25.27
2022-09-10T09:55:13.313Z,25.22
2022-09-10T09:55:49.677Z,25.17
2022-09-10T09:56:48.647Z,25.11
2022-09-10T09:57:48.640Z,25.07
2022-09-10T09:58:48.643Z,25.02
2022-09-10T09:59:48.607Z,24.93
2022-09-10T10:00:48.590Z,24.82
2022-09-10T10:01:48.640Z,24.71
2022-09-10T10:02:48.573Z,24.67
2022-09-10T10:03:48.567Z,24.66
2022-09-10T10:04:48.541Z,24.64
2022-09-10T10:05:48.531Z,24.64
2022-09-10T10:06:48.533Z,24.66
2022-09-10T10:07:48.529Z,24.71
2022-09-10T10:08:48.500Z,24.79
2022-09-10T10:09:48.498Z,24.83
2022-09-10T10:10:48.477Z,24.87
2022-09-10T10:11:48.480Z,25.04
2022-09-10T10:12:48.447Z,25.20
2022-09-10T10:13:48.440Z,25.36
2022-09-10T10:14:48.411Z,25.56
2022-09-10T10:15:48.426Z,25.72
2022-09-10T10:16:48.381Z,25.86
2022-09-10T10:17:48.381Z,26.03
2022-09-10T10:18:48.373Z,26.16
2022-09-10T10:19:48.349Z,26.28
2022-09-10T10:20:48.332Z,26.44
2022-09-10T10:21:48.342Z,26.57
2022-09-10T10:22:48.315Z,26.69
2022-09-10T10:23:48.313Z,26.76
2022-09-10T10:24:48.315Z,26.81
2022-09-10T10:25:48.287Z,26.78
2022-09-10T10:26:48.264Z,26.69
2022-09-10T10:27:48.252Z,26.71
2022-09-10T10:28:48.243Z,26.76
2022-09-10T10:29:48.237Z,26.79
2022-09-10T10:30:48.222Z,26.79
2022-09-10T10:31:48.194Z,26.84
2022-09-10T10:32:48.192Z,26.94
2022-09-10T10:33:48.167Z,26.93
2022-09-10T10:34:48.151Z,26.91
2022-09-10T10:35:48.156Z,26.88
2022-09-10T10:36:48.135Z,26.83
2022-09-10T10:37:48.131Z,26.76
2022-09-10T10:38:48.101Z,26.65
2022-09-10T10:39:48.129Z,26.56
2022-09-10T10:40:48.075Z,26.46
2022-09-10T10:41:48.065Z,26.34
2022-09-10T10:42:48.068Z,26.21
2022-09-10T10:43:48.037Z,26.06
2022-09-10T10:44:48.017Z,25.94
2022-09-10T10:45:48.003Z,25.81
2022-09-10T10:46:47.994Z,25.75
2022-09-10T10:47:48.003Z,25.67
2022-09-10T10:48:47.977Z,25.64
2022-09-10T10:49:47.954Z,25.60
2022-09-10T10:50:52.664Z,25.57
2022-09-10T10:51:48.937Z,25.57
2022-09-10T10:52:47.927Z,25.56
2022-09-10T10:53:47.921Z,25.57
2022-09-10T10:54:47.884Z,25.61
2022-09-10T10:55:47.873Z,25.66
2022-09-10T10:56:47.866Z,25.63
2022-09-10T10:57:47.877Z,25.63
2022-09-10T10:58:52.199Z,25.69
2022-09-10T10:59:48.832Z,25.75
2022-09-10T11:00:47.814Z,25.76
2022-09-10T11:01:48.340Z,25.81
2022-09-10T11:02:47.841Z,25.85
2022-09-10T11:03:47.777Z,25.90
2022-09-10T11:04:47.763Z,25.98
2022-09-10T11:05:47.760Z,26.00
2022-09-10T11:06:47.744Z,26.00
2022-09-10T11:07:47.740Z,25.93
2022-09-10T11:08:47.710Z,25.85
2022-09-10T11:09:47.699Z,25.78
2022-09-10T11:10:47.680Z,25.71
2022-09-10T11:11:47.677Z,25.63
2022-09-10T11:12:47.702Z,25.57
2022-09-10T11:13:47.667Z,25.48
2022-09-10T11:14:47.628Z,25.41
2022-09-10T11:15:47.689Z,25.34
2022-09-10T11:16:49.082Z,25.22
2022-09-10T11:17:47.612Z,25.11
2022-09-10T11:18:47.578Z,25.02
2022-09-10T11:19:56.387Z,24.99
2022-09-10T11:20:48.559Z,24.99
2022-09-10T11:21:47.550Z,24.98
2022-09-10T11:22:47.530Z,25.05
2022-09-10T11:23:47.531Z,25.22
2022-09-10T11:24:47.499Z,25.41
2022-09-10T11:25:47.492Z,25.61
2022-09-10T11:26:47.472Z,25.81
2022-09-10T11:27:47.471Z,25.98
2022-09-10T11:28:47.442Z,26.16
2022-09-10T11:29:47.438Z,26.23
2022-09-10T11:30:47.453Z,26.21
2022-09-10T11:31:47.402Z,26.16
2022-09-10T11:32:47.409Z,26.09
2022-09-10T11:33:47.382Z,26.16
2022-09-10T11:34:47.360Z,26.27
2022-09-10T11:35:47.369Z,26.34
2022-09-10T11:36:47.350Z,26.28
2022-09-10T11:37:47.341Z,26.17
2022-09-10T11:38:47.303Z,26.01
2022-09-10T11:39:47.352Z,25.89
2022-09-10T11:40:47.293Z,25.76
2022-09-10T11:41:47.277Z,25.61
2022-09-10T11:42:47.274Z,25.42
2022-09-10T11:43:47.262Z,25.23
2022-09-10T11:44:47.227Z,25.08
2022-09-10T11:45:47.224Z,24.89
2022-09-10T11:46:47.206Z,24.71
2022-09-10T11:47:47.205Z,24.56
2022-09-10T11:48:47.177Z,24.42
2022-09-10T11:49:47.177Z,24.27
2022-09-10T11:50:47.158Z,24.12
2022-09-10T11:51:47.147Z,24.04
2022-09-10T11:52:47.246Z,23.92
2022-09-10T11:53:47.123Z,23.81
2022-09-10T11:54:47.106Z,23.71
2022-09-10T11:55:47.087Z,23.59
2022-09-10T11:56:47.159Z,23.49
2022-09-10T11:57:47.078Z,23.41
2022-09-10T11:58:47.158Z,23.32
2022-09-10T11:59:47.038Z,23.22
2022-09-10T12:00:47.029Z,23.14
2022-09-10T12:01:47.080Z,23.04
2022-09-10T12:02:47.017Z,22.94
2022-09-10T12:03:47.014Z,22.86
2022-09-10T12:04:47.858Z,22.81
2022-09-10T12:05:46.967Z,22.76
2022-09-10T12:06:46.951Z,22.70
2022-09-10T12:07:46.949Z,22.60
2022-09-10T12:08:46.910Z,22.49
2022-09-10T12:09:46.907Z,22.38
2022-09-10T12:10:46.887Z,22.27
2022-09-10T12:11:46.892Z,22.17
2022-09-10T12:12:46.879Z,22.05
2022-09-10T12:13:46.939Z,21.96
2022-09-10T12:14:46.840Z,21.86
2022-09-10T12:15:46.909Z,21.70
2022-09-10T12:16:46.812Z,21.53
2022-09-10T12:17:46.866Z,21.38
2022-09-10T12:18:46.967Z,21.26
2022-09-10T12:19:46.793Z,21.08
2022-09-10T12:20:46.761Z,20.91
2022-09-10T12:21:46.760Z,20.75
2022-09-10T12:22:46.751Z,20.60
2022-09-10T12:23:46.727Z,20.46
2022-09-10T12:24:46.708Z,20.34
2022-09-10T12:25:46.719Z,20.19
2022-09-10T12:26:46.680Z,20.04
2022-09-10T12:27:46.689Z,19.94
2022-09-10T12:28:46.659Z,19.82
2022-09-10T12:29:46.660Z,19.76
2022-09-10T12:30:46.645Z,19.68
2022-09-10T12:31:46.639Z,19.62
2022-09-10T12:32:46.611Z,19.57
2022-09-10T12:33:46.594Z,19.46
2022-09-10T12:34:46.571Z,19.39
2022-09-10T12:35:46.561Z,19.28
2022-09-10T12:36:50.608Z,19.16
2022-09-10T12:37:46.551Z,19.09
2022-09-10T12:38:46.520Z,19.02
2022-09-10T12:39:46.630Z,18.97
2022-09-10T12:40:46.489Z,18.93
2022-09-10T12:41:46.498Z,18.90
2022-09-10T12:42:46.492Z,18.86
2022-09-10T12:43:46.451Z,18.75
2022-09-10T12:44:46.441Z,18.64
2022-09-10T12:45:46.574Z,18.56
2022-09-10T12:46:46.419Z,18.49
2022-09-10T12:47:46.421Z,18.41
2022-09-10T12:48:46.380Z,18.35
2022-09-10T12:49:46.380Z,18.28
2022-09-10T12:50:46.513Z,18.25
2022-09-10T12:51:46.348Z,18.20
2022-09-10T12:52:46.343Z,18.19
2022-09-10T12:53:46.535Z,18.23